sensor_id;sensor_type;location;lat;lon;timestamp;temperature;humidity
17080;DHT22;8655;57.106;-2.088;2023-04-01T00:02:18;18.10;45.80
17080;DHT22;8655;57.106;-2.088;2023-04-01T00:04:44;18.10;45.80
17080;DHT22;8655;57.106;-2.088;2023-04-01T00:07:10;18.10;45.80
17080;DHT22;8655;57.106;-2.088;2023-04-01T00:09:36;18.10;45.80
17080;DHT22;8655;57.106;-2.088;2023-04-01T00:12:02;18.10;45.80
17080;DHT22;8655;57.106;-2.088;2023-04-01T00:14:27;18.10;45.80
17080;DHT22;8655;57.106;-2.088;2023-04-01T00:16:54;18.10;45.80
17080;DHT22;8655;57.106;-2.088;2023-04-01T00:19:20;18.10;45.80
17080;DHT22;8655;57.106;-2.088;2023-04-01T00:21:45;18.10;45.80
17080;DHT22;8655;57.106;-2.088;2023-04-01T00:24:12;18.10;46.40
17080;DHT22;8655;57.106;-2.088;2023-04-01T00:26:37;18.10;45.80
17080;DHT22;8655;57.106;-2.088;2023-04-01T00:29:03;18.10;45.80
17080;DHT22;8655;57.106;-2.088;2023-04-01T00:31:28;18.10;45.80
17080;DHT22;8655;57.106;-2.088;2023-04-01T00:33:55;18.00;45.70
17080;DHT22;8655;57.106;-2.088;2023-04-01T00:36:21;18.00;45.70
17080;DHT22;8655;57.106;-2.088;2023-04-01T00:38:49;18.00;45.70
17080;DHT22;8655;57.106;-2.088;2023-04-01T00:41:15;18.10;45.80
17080;DHT22;8655;57.106;-2.088;2023-04-01T00:43:44;18.00;45.70
17080;DHT22;8655;57.106;-2.088;2023-04-01T00:46:10;18.00;45.70
17080;DHT22;8655;57.106;-2.088;2023-04-01T00:48:39;18.00;45.70
17080;DHT22;8655;57.106;-2.088;2023-04-01T00:51:13;18.00;45.70
17080;DHT22;8655;57.106;-2.088;2023-04-01T00:53:45;18.00;45.70
17080;DHT22;8655;57.106;-2.088;2023-04-01T00:56:16;18.00;45.70
17080;DHT22;8655;57.106;-2.088;2023-04-01T00:58:51;18.00;45.60
17080;DHT22;8655;57.106;-2.088;2023-04-01T01:01:20;18.00;45.70
17080;DHT22;8655;57.106;-2.088;2023-04-01T01:03:47;18.00;45.70
17080;DHT22;8655;57.106;-2.088;2023-04-01T01:06:50;18.00;45.70
17080;DHT22;8655;57.106;-2.088;2023-04-01T01:09:48;18.00;45.60
17080;DHT22;8655;57.106;-2.088;2023-04-01T01:12:20;18.00;45.60
17080;DHT22;8655;57.106;-2.088;2023-04-01T01:25:46;17.90;45.50
17080;DHT22;8655;57.106;-2.088;2023-04-01T01:36:17;17.90;45.60
17080;DHT22;8655;57.106;-2.088;2023-04-01T01:38:45;17.90;45.60
17080;DHT22;8655;57.106;-2.088;2023-04-01T01:41:13;17.90;45.60
17080;DHT22;8655;57.106;-2.088;2023-04-01T01:43:43;17.90;45.60
17080;DHT22;8655;57.106;-2.088;2023-04-01T01:46:14;17.80;45.50
17080;DHT22;8655;57.106;-2.088;2023-04-01T01:48:42;17.90;45.60
17080;DHT22;8655;57.106;-2.088;2023-04-01T01:51:08;17.80;45.40
17080;DHT22;8655;57.106;-2.088;2023-04-01T01:53:34;17.80;45.40
17080;DHT22;8655;57.106;-2.088;2023-04-01T01:56:00;17.80;45.40
17080;DHT22;8655;57.106;-2.088;2023-04-01T01:58:39;17.80;45.50
17080;DHT22;8655;57.106;-2.088;2023-04-01T02:01:20;17.80;45.40
17080;DHT22;8655;57.106;-2.088;2023-04-01T02:03:48;17.80;45.40
17080;DHT22;8655;57.106;-2.088;2023-04-01T02:06:19;17.80;45.40
17080;DHT22;8655;57.106;-2.088;2023-04-01T02:08:56;17.80;45.40
17080;DHT22;8655;57.106;-2.088;2023-04-01T02:11:29;17.80;45.40
17080;DHT22;8655;57.106;-2.088;2023-04-01T02:14:26;17.80;45.40
17080;DHT22;8655;57.106;-2.088;2023-04-01T02:17:14;17.80;45.40
17080;DHT22;8655;57.106;-2.088;2023-04-01T02:19:52;17.80;45.40
17080;DHT22;8655;57.106;-2.088;2023-04-01T02:22:28;17.80;45.40
17080;DHT22;8655;57.106;-2.088;2023-04-01T02:24:58;17.80;45.40
17080;DHT22;8655;57.106;-2.088;2023-04-01T02:27:24;17.80;45.40
17080;DHT22;8655;57.106;-2.088;2023-04-01T02:29:51;17.70;45.40
17080;DHT22;8655;57.106;-2.088;2023-04-01T02:32:19;17.80;45.40
17080;DHT22;8655;57.106;-2.088;2023-04-01T02:34:46;17.70;45.40
17080;DHT22;8655;57.106;-2.088;2023-04-01T02:37:13;17.70;45.30
17080;DHT22;8655;57.106;-2.088;2023-04-01T02:39:39;17.70;46.00
17080;DHT22;8655;57.106;-2.088;2023-04-01T02:42:05;17.70;45.30
17080;DHT22;8655;57.106;-2.088;2023-04-01T02:44:31;17.70;45.30
17080;DHT22;8655;57.106;-2.088;2023-04-01T02:46:57;17.70;45.30
17080;DHT22;8655;57.106;-2.088;2023-04-01T02:49:22;17.70;45.30
17080;DHT22;8655;57.106;-2.088;2023-04-01T02:51:48;17.70;45.30
17080;DHT22;8655;57.106;-2.088;2023-04-01T02:54:14;17.70;45.30
17080;DHT22;8655;57.106;-2.088;2023-04-01T02:56:40;17.70;45.30
17080;DHT22;8655;57.106;-2.088;2023-04-01T02:59:06;17.70;45.30
17080;DHT22;8655;57.106;-2.088;2023-04-01T03:01:31;17.70;45.30
17080;DHT22;8655;57.106;-2.088;2023-04-01T03:03:57;17.70;45.30
17080;DHT22;8655;57.106;-2.088;2023-04-01T03:06:23;17.60;45.20
17080;DHT22;8655;57.106;-2.088;2023-04-01T03:08:48;17.60;45.20
17080;DHT22;8655;57.106;-2.088;2023-04-01T03:11:14;17.60;45.20
17080;DHT22;8655;57.106;-2.088;2023-04-01T03:13:40;17.60;45.20
17080;DHT22;8655;57.106;-2.088;2023-04-01T03:16:05;17.60;45.20
17080;DHT22;8655;57.106;-2.088;2023-04-01T03:18:31;17.60;45.20
17080;DHT22;8655;57.106;-2.088;2023-04-01T03:20:57;17.60;45.20
17080;DHT22;8655;57.106;-2.088;2023-04-01T03:23:23;17.60;45.20
17080;DHT22;8655;57.106;-2.088;2023-04-01T03:25:50;17.60;45.20
17080;DHT22;8655;57.106;-2.088;2023-04-01T03:28:15;17.60;45.20
17080;DHT22;8655;57.106;-2.088;2023-04-01T03:30:41;17.60;45.20
17080;DHT22;8655;57.106;-2.088;2023-04-01T03:33:07;17.60;45.20
17080;DHT22;8655;57.106;-2.088;2023-04-01T03:35:32;17.60;45.20
17080;DHT22;8655;57.106;-2.088;2023-04-01T03:37:58;17.60;45.20
17080;DHT22;8655;57.106;-2.088;2023-04-01T03:40:24;17.60;45.20
17080;DHT22;8655;57.106;-2.088;2023-04-01T03:42:51;17.60;45.20
17080;DHT22;8655;57.106;-2.088;2023-04-01T03:45:17;17.60;45.20
17080;DHT22;8655;57.106;-2.088;2023-04-01T03:47:43;17.50;45.10
17080;DHT22;8655;57.106;-2.088;2023-04-01T03:50:09;17.50;45.10
17080;DHT22;8655;57.106;-2.088;2023-04-01T03:52:35;17.50;45.10
17080;DHT22;8655;57.106;-2.088;2023-04-01T03:55:01;17.50;45.10
17080;DHT22;8655;57.106;-2.088;2023-04-01T03:57:27;17.60;45.20
17080;DHT22;8655;57.106;-2.088;2023-04-01T03:59:53;17.50;45.10
17080;DHT22;8655;57.106;-2.088;2023-04-01T04:02:19;17.50;45.10
17080;DHT22;8655;57.106;-2.088;2023-04-01T04:04:44;17.50;45.10
17080;DHT22;8655;57.106;-2.088;2023-04-01T04:07:12;17.50;45.10
17080;DHT22;8655;57.106;-2.088;2023-04-01T04:09:37;17.50;45.10
17080;DHT22;8655;57.106;-2.088;2023-04-01T04:12:03;17.50;45.10
17080;DHT22;8655;57.106;-2.088;2023-04-01T04:14:30;17.50;45.10
17080;DHT22;8655;57.106;-2.088;2023-04-01T04:16:56;17.50;45.10
17080;DHT22;8655;57.106;-2.088;2023-04-01T04:19:22;17.50;45.10
17080;DHT22;8655;57.106;-2.088;2023-04-01T04:21:48;17.50;45.10
17080;DHT22;8655;57.106;-2.088;2023-04-01T04:24:13;17.50;45.10
17080;DHT22;8655;57.106;-2.088;2023-04-01T04:26:39;17.50;45.10
17080;DHT22;8655;57.106;-2.088;2023-04-01T04:29:05;17.50;45.10
17080;DHT22;8655;57.106;-2.088;2023-04-01T04:31:30;17.40;45.00
17080;DHT22;8655;57.106;-2.088;2023-04-01T04:33:58;17.50;45.10
17080;DHT22;8655;57.106;-2.088;2023-04-01T04:36:23;17.40;45.00
17080;DHT22;8655;57.106;-2.088;2023-04-01T04:38:49;17.40;45.00
17080;DHT22;8655;57.106;-2.088;2023-04-01T04:41:16;17.40;45.00
17080;DHT22;8655;57.106;-2.088;2023-04-01T04:43:52;17.40;45.00
17080;DHT22;8655;57.106;-2.088;2023-04-01T04:46:19;17.40;45.00
17080;DHT22;8655;57.106;-2.088;2023-04-01T04:48:45;17.40;45.00
17080;DHT22;8655;57.106;-2.088;2023-04-01T04:51:15;17.40;45.00
17080;DHT22;8655;57.106;-2.088;2023-04-01T04:53:41;17.40;45.00
17080;DHT22;8655;57.106;-2.088;2023-04-01T04:56:07;17.40;45.00
17080;DHT22;8655;57.106;-2.088;2023-04-01T04:58:32;17.40;45.00
17080;DHT22;8655;57.106;-2.088;2023-04-01T05:00:59;17.40;45.00
17080;DHT22;8655;57.106;-2.088;2023-04-01T05:03:25;17.40;45.00
17080;DHT22;8655;57.106;-2.088;2023-04-01T05:05:52;17.40;45.00
17080;DHT22;8655;57.106;-2.088;2023-04-01T05:08:18;17.40;45.00
17080;DHT22;8655;57.106;-2.088;2023-04-01T05:10:44;17.40;45.00
17080;DHT22;8655;57.106;-2.088;2023-04-01T05:13:10;17.40;45.00
17080;DHT22;8655;57.106;-2.088;2023-04-01T05:15:35;17.40;45.00
17080;DHT22;8655;57.106;-2.088;2023-04-01T05:18:02;17.40;45.00
17080;DHT22;8655;57.106;-2.088;2023-04-01T05:20:28;17.30;44.90
17080;DHT22;8655;57.106;-2.088;2023-04-01T05:22:57;17.30;44.90
17080;DHT22;8655;57.106;-2.088;2023-04-01T05:25:23;17.30;44.90
17080;DHT22;8655;57.106;-2.088;2023-04-01T05:27:49;17.30;44.90
17080;DHT22;8655;57.106;-2.088;2023-04-01T05:30:15;17.30;44.90
17080;DHT22;8655;57.106;-2.088;2023-04-01T05:32:40;17.30;44.90
17080;DHT22;8655;57.106;-2.088;2023-04-01T05:35:06;17.30;44.90
17080;DHT22;8655;57.106;-2.088;2023-04-01T05:37:36;17.30;44.90
17080;DHT22;8655;57.106;-2.088;2023-04-01T05:40:03;17.30;44.90
17080;DHT22;8655;57.106;-2.088;2023-04-01T05:42:29;17.30;44.90
17080;DHT22;8655;57.106;-2.088;2023-04-01T05:44:54;17.30;44.90
17080;DHT22;8655;57.106;-2.088;2023-04-01T05:47:21;17.30;44.90
17080;DHT22;8655;57.106;-2.088;2023-04-01T05:49:47;17.30;44.90
17080;DHT22;8655;57.106;-2.088;2023-04-01T05:52:13;17.30;44.90
17080;DHT22;8655;57.106;-2.088;2023-04-01T05:54:39;17.30;45.00
17080;DHT22;8655;57.106;-2.088;2023-04-01T05:57:05;17.30;45.00
17080;DHT22;8655;57.106;-2.088;2023-04-01T05:59:31;17.30;45.00
17080;DHT22;8655;57.106;-2.088;2023-04-01T06:01:57;17.30;45.00
17080;DHT22;8655;57.106;-2.088;2023-04-01T06:04:23;17.40;45.00
17080;DHT22;8655;57.106;-2.088;2023-04-01T06:06:50;17.40;45.00
17080;DHT22;8655;57.106;-2.088;2023-04-01T06:09:21;17.40;45.00
17080;DHT22;8655;57.106;-2.088;2023-04-01T06:15:01;17.50;45.00
17080;DHT22;8655;57.106;-2.088;2023-04-01T06:20:11;17.60;45.00
17080;DHT22;8655;57.106;-2.088;2023-04-01T06:23:04;17.60;45.00
17080;DHT22;8655;57.106;-2.088;2023-04-01T06:25:38;17.70;45.10
17080;DHT22;8655;57.106;-2.088;2023-04-01T06:41:55;18.00;45.20
17080;DHT22;8655;57.106;-2.088;2023-04-01T06:44:37;18.10;45.20
17080;DHT22;8655;57.106;-2.088;2023-04-01T06:58:03;18.30;45.30
17080;DHT22;8655;57.106;-2.088;2023-04-01T07:00:31;18.30;45.30
17080;DHT22;8655;57.106;-2.088;2023-04-01T07:05:31;18.40;45.40
17080;DHT22;8655;57.106;-2.088;2023-04-01T07:08:00;18.50;45.40
17080;DHT22;8655;57.106;-2.088;2023-04-01T07:13:38;18.60;45.40
17080;DHT22;8655;57.106;-2.088;2023-04-01T07:16:16;18.60;45.40
17080;DHT22;8655;57.106;-2.088;2023-04-01T07:21:29;18.70;45.50
17080;DHT22;8655;57.106;-2.088;2023-04-01T07:23:59;18.70;45.40
17080;DHT22;8655;57.106;-2.088;2023-04-01T07:26:26;18.80;45.50
17080;DHT22;8655;57.106;-2.088;2023-04-01T07:28:52;18.80;45.50
17080;DHT22;8655;57.106;-2.088;2023-04-01T07:31:30;18.90;45.60
17080;DHT22;8655;57.106;-2.088;2023-04-01T07:36:54;19.00;45.60
17080;DHT22;8655;57.106;-2.088;2023-04-01T07:42:24;19.00;45.50
17080;DHT22;8655;57.106;-2.088;2023-04-01T07:50:50;19.10;45.60
17080;DHT22;8655;57.106;-2.088;2023-04-01T08:06:36;19.20;45.70
17080;DHT22;8655;57.106;-2.088;2023-04-01T08:15:17;19.20;45.70
17080;DHT22;8655;57.106;-2.088;2023-04-01T08:20:52;19.10;45.60
17080;DHT22;8655;57.106;-2.088;2023-04-01T08:23:22;19.10;45.60
17080;DHT22;8655;57.106;-2.088;2023-04-01T08:26:13;19.10;45.60
17080;DHT22;8655;57.106;-2.088;2023-04-01T08:28:44;19.10;45.60
17080;DHT22;8655;57.106;-2.088;2023-04-01T08:31:16;19.10;45.60
17080;DHT22;8655;57.106;-2.088;2023-04-01T08:33:44;19.10;45.60
17080;DHT22;8655;57.106;-2.088;2023-04-01T08:36:15;19.10;45.60
17080;DHT22;8655;57.106;-2.088;2023-04-01T08:38:51;19.00;45.60
17080;DHT22;8655;57.106;-2.088;2023-04-01T08:41:45;19.00;45.50
17080;DHT22;8655;57.106;-2.088;2023-04-01T08:52:56;19.00;45.50
17080;DHT22;8655;57.106;-2.088;2023-04-01T09:01:01;18.90;45.50
17080;DHT22;8655;57.106;-2.088;2023-04-01T09:12:07;18.90;45.50
17080;DHT22;8655;57.106;-2.088;2023-04-01T09:20:46;18.80;45.40
17080;DHT22;8655;57.106;-2.088;2023-04-01T09:32:00;18.70;45.40
17080;DHT22;8655;57.106;-2.088;2023-04-01T09:35:02;18.70;45.40
17080;DHT22;8655;57.106;-2.088;2023-04-01T09:37:58;18.70;45.40
17080;DHT22;8655;57.106;-2.088;2023-04-01T09:50:52;18.60;45.30
17080;DHT22;8655;57.106;-2.088;2023-04-01T10:27:46;18.50;45.20
17080;DHT22;8655;57.106;-2.088;2023-04-01T10:44:45;18.40;45.10
17080;DHT22;8655;57.106;-2.088;2023-04-01T10:50:51;18.30;45.00
17080;DHT22;8655;57.106;-2.088;2023-04-01T11:10:31;18.30;45.00
17080;DHT22;8655;57.106;-2.088;2023-04-01T11:19:23;18.20;44.90
17080;DHT22;8655;57.106;-2.088;2023-04-01T11:30:04;18.20;44.90
17080;DHT22;8655;57.106;-2.088;2023-04-01T11:32:42;18.20;44.90
17080;DHT22;8655;57.106;-2.088;2023-04-01T11:38:06;18.20;45.00
17080;DHT22;8655;57.106;-2.088;2023-04-01T11:52:42;18.10;44.90
17080;DHT22;8655;57.106;-2.088;2023-04-01T12:03:50;18.10;44.80
17080;DHT22;8655;57.106;-2.088;2023-04-01T12:30:34;18.00;44.70
17080;DHT22;8655;57.106;-2.088;2023-04-01T12:33:32;18.00;44.70
17080;DHT22;8655;57.106;-2.088;2023-04-01T12:55:43;18.00;44.70
17080;DHT22;8655;57.106;-2.088;2023-04-01T13:06:50;17.90;44.60
17080;DHT22;8655;57.106;-2.088;2023-04-01T13:20:28;17.90;44.60
17080;DHT22;8655;57.106;-2.088;2023-04-01T13:28:22;17.90;44.60
17080;DHT22;8655;57.106;-2.088;2023-04-01T13:34:25;17.90;44.60
17080;DHT22;8655;57.106;-2.088;2023-04-01T13:42:40;17.90;44.60
17080;DHT22;8655;57.106;-2.088;2023-04-01T13:53:22;17.80;44.50
17080;DHT22;8655;57.106;-2.088;2023-04-01T13:56:23;17.80;44.50
17080;DHT22;8655;57.106;-2.088;2023-04-01T13:58:55;17.80;44.50
17080;DHT22;8655;57.106;-2.088;2023-04-01T14:01:30;17.80;44.50
17080;DHT22;8655;57.106;-2.088;2023-04-01T14:21:35;17.80;44.50
17080;DHT22;8655;57.106;-2.088;2023-04-01T14:24:24;17.80;44.50
17080;DHT22;8655;57.106;-2.088;2023-04-01T14:31:12;17.80;44.50
17080;DHT22;8655;57.106;-2.088;2023-04-01T14:44:56;17.80;44.50
17080;DHT22;8655;57.106;-2.088;2023-04-01T14:49:41;17.70;44.40
17080;DHT22;8655;57.106;-2.088;2023-04-01T14:52:33;17.80;44.50
17080;DHT22;8655;57.106;-2.088;2023-04-01T14:55:02;17.70;44.40
17080;DHT22;8655;57.106;-2.088;2023-04-01T14:58:16;17.70;44.40
17080;DHT22;8655;57.106;-2.088;2023-04-01T15:01:06;17.70;44.40
17080;DHT22;8655;57.106;-2.088;2023-04-01T15:20:17;17.70;44.40
17080;DHT22;8655;57.106;-2.088;2023-04-01T15:42:36;17.60;44.30
17080;DHT22;8655;57.106;-2.088;2023-04-01T15:46:14;17.70;44.40
17080;DHT22;8655;57.106;-2.088;2023-04-01T15:51:35;17.70;44.40
17080;DHT22;8655;57.106;-2.088;2023-04-01T15:56:55;17.60;44.30
17080;DHT22;8655;57.106;-2.088;2023-04-01T16:02:32;17.60;44.30
17080;DHT22;8655;57.106;-2.088;2023-04-01T16:21:50;17.60;44.30
17080;DHT22;8655;57.106;-2.088;2023-04-01T16:26:58;17.60;44.60
17080;DHT22;8655;57.106;-2.088;2023-04-01T16:29:40;17.50;44.20
17080;DHT22;8655;57.106;-2.088;2023-04-01T16:40:23;17.50;44.20
17080;DHT22;8655;57.106;-2.088;2023-04-01T16:45:53;17.50;44.10
17080;DHT22;8655;57.106;-2.088;2023-04-01T16:48:49;17.60;44.20
17080;DHT22;8655;57.106;-2.088;2023-04-01T16:51:18;17.50;44.10
17080;DHT22;8655;57.106;-2.088;2023-04-01T16:53:50;17.60;44.20
17080;DHT22;8655;57.106;-2.088;2023-04-01T16:56:28;17.50;44.10
17080;DHT22;8655;57.106;-2.088;2023-04-01T17:09:51;17.50;44.10
17080;DHT22;8655;57.106;-2.088;2023-04-01T17:15:12;17.50;44.10
17080;DHT22;8655;57.106;-2.088;2023-04-01T17:28:12;17.50;44.10
17080;DHT22;8655;57.106;-2.088;2023-04-01T17:30:46;17.40;44.10
17080;DHT22;8655;57.106;-2.088;2023-04-01T17:42:04;17.40;44.10
17080;DHT22;8655;57.106;-2.088;2023-04-01T17:44:46;17.50;44.10
17080;DHT22;8655;57.106;-2.088;2023-04-01T17:58:22;17.50;44.30
17080;DHT22;8655;57.106;-2.088;2023-04-01T18:06:59;17.60;44.30
17080;DHT22;8655;57.106;-2.088;2023-04-01T18:09:52;17.70;44.40
17080;DHT22;8655;57.106;-2.088;2023-04-01T18:12:40;17.70;44.30
17080;DHT22;8655;57.106;-2.088;2023-04-01T18:15:32;17.70;44.30
17080;DHT22;8655;57.106;-2.088;2023-04-01T18:26:14;17.90;44.30
17080;DHT22;8655;57.106;-2.088;2023-04-01T18:29:11;18.00;44.40
17080;DHT22;8655;57.106;-2.088;2023-04-01T18:31:42;18.00;44.40
17080;DHT22;8655;57.106;-2.088;2023-04-01T18:34:14;18.10;44.50
17080;DHT22;8655;57.106;-2.088;2023-04-01T18:39:22;18.20;44.50
17080;DHT22;8655;57.106;-2.088;2023-04-01T18:47:43;18.30;44.50
17080;DHT22;8655;57.106;-2.088;2023-04-01T18:53:10;18.50;44.70
17080;DHT22;8655;57.106;-2.088;2023-04-01T18:55:47;18.50;44.60
17080;DHT22;8655;57.106;-2.088;2023-04-01T19:00:53;18.60;44.70
17080;DHT22;8655;57.106;-2.088;2023-04-01T19:06:48;18.70;44.70
17080;DHT22;8655;57.106;-2.088;2023-04-01T19:26:09;19.00;44.90
17080;DHT22;8655;57.106;-2.088;2023-04-01T19:28:54;19.10;44.90
17080;DHT22;8655;57.106;-2.088;2023-04-01T19:37:03;19.20;44.90
17080;DHT22;8655;57.106;-2.088;2023-04-01T19:42:32;19.20;44.90
17080;DHT22;8655;57.106;-2.088;2023-04-01T19:53:30;19.20;44.90
17080;DHT22;8655;57.106;-2.088;2023-04-01T19:56:16;19.20;45.00
17080;DHT22;8655;57.106;-2.088;2023-04-01T19:58:55;19.20;44.90
17080;DHT22;8655;57.106;-2.088;2023-04-01T20:04:01;19.20;45.00
17080;DHT22;8655;57.106;-2.088;2023-04-01T20:06:44;19.20;45.00
17080;DHT22;8655;57.106;-2.088;2023-04-01T20:14:50;19.20;45.00
17080;DHT22;8655;57.106;-2.088;2023-04-01T20:17:32;19.20;45.00
17080;DHT22;8655;57.106;-2.088;2023-04-01T20:25:18;19.10;44.90
17080;DHT22;8655;57.106;-2.088;2023-04-01T20:28:00;19.10;44.90
17080;DHT22;8655;57.106;-2.088;2023-04-01T20:47:22;19.00;44.90
17080;DHT22;8655;57.106;-2.088;2023-04-01T20:52:25;19.00;45.00
17080;DHT22;8655;57.106;-2.088;2023-04-01T21:03:18;18.90;44.90
17080;DHT22;8655;57.106;-2.088;2023-04-01T21:06:25;18.90;44.80
17080;DHT22;8655;57.106;-2.088;2023-04-01T21:09:28;18.90;44.90
17080;DHT22;8655;57.106;-2.088;2023-04-01T21:21:27;18.80;44.80
17080;DHT22;8655;57.106;-2.088;2023-04-01T21:26:32;18.80;44.80
17080;DHT22;8655;57.106;-2.088;2023-04-01T21:29:42;18.70;44.70
17080;DHT22;8655;57.106;-2.088;2023-04-01T21:32:32;18.70;44.70
17080;DHT22;8655;57.106;-2.088;2023-04-01T21:47:19;18.70;44.70
17080;DHT22;8655;57.106;-2.088;2023-04-01T21:58:57;18.60;44.70
17080;DHT22;8655;57.106;-2.088;2023-04-01T22:04:22;18.60;44.70
17080;DHT22;8655;57.106;-2.088;2023-04-01T22:07:08;18.60;44.70
17080;DHT22;8655;57.106;-2.088;2023-04-01T22:09:42;18.60;44.70
17080;DHT22;8655;57.106;-2.088;2023-04-01T22:12:11;18.60;44.70
17080;DHT22;8655;57.106;-2.088;2023-04-01T22:15:08;18.50;44.60
17080;DHT22;8655;57.106;-2.088;2023-04-01T22:17:38;18.50;44.60
17080;DHT22;8655;57.106;-2.088;2023-04-01T22:20:23;18.50;44.60
17080;DHT22;8655;57.106;-2.088;2023-04-01T22:30:29;18.50;44.60
17080;DHT22;8655;57.106;-2.088;2023-04-01T22:33:05;18.50;44.60
17080;DHT22;8655;57.106;-2.088;2023-04-01T22:41:12;18.50;44.60
17080;DHT22;8655;57.106;-2.088;2023-04-01T22:43:42;18.40;44.50
17080;DHT22;8655;57.106;-2.088;2023-04-01T22:49:10;18.40;44.50
17080;DHT22;8655;57.106;-2.088;2023-04-01T22:51:58;18.40;44.50
17080;DHT22;8655;57.106;-2.088;2023-04-01T22:54:31;18.40;44.50
17080;DHT22;8655;57.106;-2.088;2023-04-01T22:57:04;18.40;44.50
17080;DHT22;8655;57.106;-2.088;2023-04-01T22:59:40;18.40;44.50
17080;DHT22;8655;57.106;-2.088;2023-04-01T23:02:16;18.40;44.50
17080;DHT22;8655;57.106;-2.088;2023-04-01T23:04:49;18.30;44.40
17080;DHT22;8655;57.106;-2.088;2023-04-01T23:07:59;18.30;44.40
17080;DHT22;8655;57.106;-2.088;2023-04-01T23:10:26;18.30;44.40
17080;DHT22;8655;57.106;-2.088;2023-04-01T23:12:58;18.30;44.40
17080;DHT22;8655;57.106;-2.088;2023-04-01T23:15:25;18.30;44.40
17080;DHT22;8655;57.106;-2.088;2023-04-01T23:18:00;18.30;44.40
17080;DHT22;8655;57.106;-2.088;2023-04-01T23:23:23;18.30;44.40
17080;DHT22;8655;57.106;-2.088;2023-04-01T23:28:46;18.30;44.40
17080;DHT22;8655;57.106;-2.088;2023-04-01T23:31:32;18.30;44.40
17080;DHT22;8655;57.106;-2.088;2023-04-01T23:34:03;18.30;44.40
17080;DHT22;8655;57.106;-2.088;2023-04-01T23:36:31;18.20;44.30
17080;DHT22;8655;57.106;-2.088;2023-04-01T23:39:05;18.20;44.30
17080;DHT22;8655;57.106;-2.088;2023-04-01T23:41:33;18.20;44.30
17080;DHT22;8655;57.106;-2.088;2023-04-01T23:44:10;18.20;44.30
17080;DHT22;8655;57.106;-2.088;2023-04-01T23:46:39;18.20;44.30
17080;DHT22;8655;57.106;-2.088;2023-04-01T23:49:17;18.20;44.30
17080;DHT22;8655;57.106;-2.088;2023-04-01T23:51:57;18.20;44.30
17080;DHT22;8655;57.106;-2.088;2023-04-01T23:54:33;18.20;44.30
17080;DHT22;8655;57.106;-2.088;2023-04-01T23:56:59;18.20;44.30
17080;DHT22;8655;57.106;-2.088;2023-04-01T23:59:29;18.20;44.30
